Terminal Aerodrome Forecast
Issued by NWS

Home | Current Version | Previous Version | Graphics & Text | Print | Product List | Glossary On
Versions: 1 2 3 4 5 6 7 8 9 10 11 12 13 14
000
FTUS43 KMPX 282337
TAFRWF
TAF
KRWF 282337Z 2900/2924 18020G28KT P6SM FEW250
     FM290400 17025G32KT P6SM SCT050 BKN200
     FM290800 19022G30KT P6SM -RA SCT020 BKN040
     FM291200 27018G28KT P6SM SCT030 BKN080
     FM291500 31028G40KT P6SM SCT040=

USA.gov is the U.S. government's official web portal to all federal, state and local government web resources and services.